Time;durP1;ratioP1;P1;durP2;ratioP2;P2;SDS_P1;SDS_P2;PMS_P1;PMS_P2;Temp;Humidity;BMP_temperature;BMP_pressure;BME280_temperature;BME280_humidity;BME280_pressure;Samples;Min_cycle;Max_cycle;Signal;HPM_P1;HPM_P2
2024/03/28 00:00:21;;;;;;;1.37;1.10;;;1.30;99.90;;;;;;2025063;29;20233;-69
2024/03/28 00:01:22;;;;;;;1.63;0.90;;;1.30;99.90;;;;;;2009150;29;20766;-69
2024/03/28 00:02:22;;;;;;;1.23;1.10;;;1.20;99.90;;;;;;2022083;29;20253;-69
2024/03/28 00:03:24;;;;;;;1.00;0.90;;;1.20;99.90;;;;;;2039234;29;20224;-69
2024/03/28 00:04:25;;;;;;;1.23;1.00;;;1.20;99.90;;;;;;2025113;29;20315;-69
2024/03/28 00:05:25;;;;;;;1.10;1.00;;;1.30;99.90;;;;;;2018463;29;20647;-69
2024/03/28 00:06:26;;;;;;;1.43;0.90;;;1.30;99.90;;;;;;2017297;29;20217;-69
2024/03/28 00:07:27;;;;;;;2.30;1.30;;;1.30;99.90;;;;;;2024812;29;20217;-69
2024/03/28 00:08:28;;;;;;;1.57;1.17;;;1.30;99.90;;;;;;2025422;29;20269;-69
2024/03/28 00:09:30;;;;;;;3.30;1.30;;;1.30;99.90;;;;;;2024406;29;20229;-70
2024/03/28 00:10:31;;;;;;;1.65;1.17;;;1.30;99.90;;;;;;2024659;29;20221;-70
2024/03/28 00:11:31;;;;;;;1.63;1.17;;;1.30;99.90;;;;;;2025693;29;20274;-70
2024/03/28 00:12:32;;;;;;;1.23;1.13;;;1.30;99.90;;;;;;2032599;29;20225;-71
2024/03/28 00:13:33;;;;;;;1.03;1.00;;;1.30;99.90;;;;;;2024342;29;20252;-70
2024/03/28 00:14:33;;;;;;;2.43;1.13;;;1.30;99.90;;;;;;2024352;29;20221;-70
2024/03/28 00:15:34;;;;;;;1.30;1.20;;;1.30;99.90;;;;;;2038570;29;20216;-71
2024/03/28 00:16:35;;;;;;;1.43;1.20;;;1.30;99.90;;;;;;2030266;29;20232;-70
2024/03/28 00:17:35;;;;;;;1.50;1.20;;;1.30;99.90;;;;;;2016052;29;20230;-70
2024/03/28 00:18:36;;;;;;;3.07;1.37;;;1.20;99.90;;;;;;2017058;29;20612;-70
2024/03/28 00:19:37;;;;;;;1.70;1.30;;;1.20;99.90;;;;;;2023403;29;20229;-70
2024/03/28 00:20:38;;;;;;;2.90;1.77;;;1.10;99.90;;;;;;2023957;29;20229;-70
2024/03/28 00:21:38;;;;;;;2.63;1.77;;;1.10;99.90;;;;;;2016010;29;20218;-70
2024/03/28 00:22:39;;;;;;;2.07;1.77;;;1.10;99.90;;;;;;2024429;29;20226;-71
2024/03/28 00:23:40;;;;;;;2.03;1.53;;;1.20;99.90;;;;;;2027460;29;20232;-70
2024/03/28 00:24:43;;;;;;;2.00;1.57;;;1.20;99.90;;;;;;2027309;29;20316;-70
2024/03/28 00:25:51;;;;;;;1.67;1.27;;;1.20;99.90;;;;;;2031099;29;20759;-70
2024/03/28 00:26:52;;;;;;;2.38;1.70;;;1.20;99.90;;;;;;2028593;29;20769;-71
2024/03/28 00:27:53;;;;;;;2.87;1.57;;;1.10;99.90;;;;;;2026444;29;20225;-70
2024/03/28 00:28:53;;;;;;;2.00;1.60;;;1.10;99.90;;;;;;2023928;29;20283;-70
2024/03/28 00:29:54;;;;;;;2.97;1.47;;;1.20;99.90;;;;;;2022337;29;20557;-70
2024/03/28 00:30:55;;;;;;;3.47;1.73;;;1.20;99.90;;;;;;2038159;29;20226;-71
2024/03/28 00:31:55;;;;;;;2.00;1.80;;;1.00;99.90;;;;;;2037936;29;20224;-71
2024/03/28 00:32:56;;;;;;;1.67;1.50;;;1.00;99.90;;;;;;2037923;29;20704;-70
2024/03/28 00:33:57;;;;;;;2.20;1.70;;;1.00;99.90;;;;;;2038941;29;20312;-71
2024/03/28 00:34:58;;;;;;;2.57;1.80;;;1.00;99.90;;;;;;2014834;29;20324;-70
2024/03/28 00:35:58;;;;;;;2.28;1.65;;;1.00;99.90;;;;;;2022511;29;20229;-70
2024/03/28 00:36:59;;;;;;;2.90;1.70;;;1.00;99.90;;;;;;2038068;29;20239;-70
2024/03/28 00:38:00;;;;;;;3.13;1.83;;;1.00;99.90;;;;;;2033526;29;20240;-70
2024/03/28 00:39:02;;;;;;;2.43;1.60;;;1.00;99.90;;;;;;2033394;29;20248;-68
2024/03/28 00:40:03;;;;;;;2.83;1.90;;;0.90;99.90;;;;;;2033650;29;20188;-69
2024/03/28 00:41:04;;;;;;;3.35;1.80;;;1.00;99.90;;;;;;2025656;29;20274;-70
2024/03/28 00:42:05;;;;;;;2.77;1.50;;;0.90;99.90;;;;;;2025094;29;20190;-70
2024/03/28 00:43:06;;;;;;;1.63;1.47;;;0.90;99.90;;;;;;2030794;29;20241;-70
2024/03/28 00:44:06;;;;;;;1.70;1.60;;;0.90;99.90;;;;;;2025390;29;20682;-70
2024/03/28 00:45:07;;;;;;;3.17;2.00;;;0.80;99.90;;;;;;2025471;29;20233;-70
2024/03/28 00:46:08;;;;;;;2.10;1.63;;;0.90;99.90;;;;;;2033985;29;20193;-70
2024/03/28 00:47:08;;;;;;;1.97;1.60;;;0.90;99.90;;;;;;2023819;29;21014;-70
2024/03/28 00:48:10;;;;;;;2.13;1.70;;;0.90;99.90;;;;;;2017737;29;20254;-70
2024/03/28 00:49:11;;;;;;;3.90;1.75;;;0.90;99.90;;;;;;2017952;29;20190;-70
2024/03/28 00:50:11;;;;;;;2.40;2.00;;;0.80;99.90;;;;;;2016329;29;20248;-70
2024/03/28 00:51:12;;;;;;;1.80;1.43;;;0.90;99.90;;;;;;2009718;29;20199;-70
2024/03/28 00:52:13;;;;;;;1.90;1.40;;;0.90;99.90;;;;;;2016354;29;20183;-70
2024/03/28 00:53:13;;;;;;;2.70;1.83;;;0.90;99.90;;;;;;2024575;29;20606;-70
2024/03/28 00:54:14;;;;;;;2.30;1.43;;;0.90;99.90;;;;;;2024399;29;20218;-70
2024/03/28 00:55:15;;;;;;;2.10;1.80;;;1.00;99.90;;;;;;2014793;29;20243;-70
2024/03/28 00:56:15;;;;;;;3.60;1.87;;;1.00;99.90;;;;;;2024014;29;20190;-70
2024/03/28 00:57:16;;;;;;;2.77;1.97;;;1.10;99.90;;;;;;2032333;29;20279;-70
2024/03/28 00:58:17;;;;;;;2.03;1.67;;;1.10;99.90;;;;;;2032100;29;20208;-70
2024/03/28 00:59:18;;;;;;;1.55;1.30;;;1.10;99.90;;;;;;2023107;29;20186;-70
2024/03/28 01:00:20;;;;;;;1.90;1.57;;;1.10;99.90;;;;;;2016167;29;20690;-70
2024/03/28 01:01:20;;;;;;;2.00;1.75;;;1.10;99.90;;;;;;2016083;29;21700;-70
2024/03/28 01:02:21;;;;;;;2.40;1.50;;;1.20;99.90;;;;;;2023612;29;20242;-69
2024/03/28 01:03:22;;;;;;;2.53;1.90;;;1.20;99.90;;;;;;2031974;29;20225;-70
2024/03/28 01:04:22;;;;;;;4.13;2.10;;;1.20;99.90;;;;;;2031545;29;20697;-70
2024/03/28 01:05:23;;;;;;;4.13;1.87;;;1.20;99.90;;;;;;2023260;29;20221;-70
2024/03/28 01:06:24;;;;;;;3.80;2.20;;;1.20;99.90;;;;;;2024007;29;20224;-70
2024/03/28 01:07:24;;;;;;;2.27;1.80;;;1.20;99.90;;;;;;2023073;29;20231;-70
2024/03/28 01:08:26;;;;;;;4.40;2.50;;;1.30;99.90;;;;;;2023542;29;20652;-70
2024/03/28 01:09:26;;;;;;;4.32;2.70;;;1.20;99.90;;;;;;2030374;29;20220;-70
2024/03/28 01:10:27;;;;;;;3.30;2.50;;;1.20;99.90;;;;;;2032031;29;20220;-70
2024/03/28 01:11:28;;;;;;;3.83;2.53;;;1.20;99.90;;;;;;2030664;29;20225;-70
2024/03/28 01:12:28;;;;;;;3.37;2.87;;;1.20;99.90;;;;;;2038730;29;20220;-70
2024/03/28 01:13:29;;;;;;;4.10;2.83;;;1.10;99.90;;;;;;2031035;29;20229;-70
2024/03/28 01:14:31;;;;;;;3.90;2.83;;;1.10;99.90;;;;;;2023406;29;20694;-70
2024/03/28 01:15:34;;;;;;;5.68;3.17;;;1.10;99.90;;;;;;2022366;29;20234;-70
2024/03/28 01:16:35;;;;;;;4.38;3.00;;;1.00;99.90;;;;;;2011270;29;20222;-70
2024/03/28 01:17:35;;;;;;;4.53;2.93;;;1.00;99.90;;;;;;2010522;29;20225;-71
2024/03/28 01:18:36;;;;;;;5.60;3.80;;;1.00;99.90;;;;;;2022252;29;20217;-70
2024/03/28 01:19:37;;;;;;;5.07;3.10;;;1.10;99.90;;;;;;2038011;29;20751;-70
2024/03/28 01:20:38;;;;;;;4.90;3.57;;;1.00;99.90;;;;;;2034287;29;20226;-71
2024/03/28 01:21:39;;;;;;;6.33;4.40;;;1.10;99.90;;;;;;2026459;29;20287;-70
2024/03/28 01:22:39;;;;;;;4.57;3.25;;;1.10;99.90;;;;;;2025987;29;20225;-71
2024/03/28 01:23:40;;;;;;;3.70;2.90;;;1.10;99.90;;;;;;2025250;29;20316;-71
2024/03/28 01:24:41;;;;;;;5.80;3.30;;;1.10;99.90;;;;;;2025274;29;20232;-70
2024/03/28 01:25:42;;;;;;;6.20;3.90;;;1.10;99.90;;;;;;2025384;29;20631;-71
2024/03/28 01:26:42;;;;;;;4.87;3.43;;;1.10;99.90;;;;;;2026295;29;20225;-71
2024/03/28 01:27:46;;;;;;;4.73;3.60;;;1.10;99.90;;;;;;2025314;29;20226;-71
2024/03/28 01:28:46;;;;;;;4.45;3.25;;;1.10;99.90;;;;;;2018623;29;20711;-71
2024/03/28 01:29:51;;;;;;;6.13;4.17;;;1.00;99.90;;;;;;2020419;29;20233;-71
2024/03/28 01:31:01;;;;;;;5.57;3.50;;;1.00;99.90;;;;;;2034317;29;20645;-71
2024/03/28 01:32:03;;;;;;;5.30;3.78;;;1.00;99.90;;;;;;2019908;29;20325;-70
2024/03/28 01:33:04;;;;;;;5.32;3.95;;;1.10;99.90;;;;;;2015483;29;20189;-70
2024/03/28 01:34:05;;;;;;;6.15;3.97;;;1.00;99.90;;;;;;2021052;29;20189;-70
2024/03/28 01:35:06;;;;;;;6.05;3.50;;;1.00;99.90;;;;;;2022304;29;20205;-70
2024/03/28 01:36:07;;;;;;;6.22;4.25;;;0.90;99.90;;;;;;2030142;29;20392;-71
2024/03/28 01:37:08;;;;;;;6.80;3.73;;;0.80;99.90;;;;;;2016576;29;20186;-70
2024/03/28 01:38:08;;;;;;;4.93;3.03;;;0.80;99.90;;;;;;2016548;29;20190;-71
2024/03/28 01:39:09;;;;;;;5.53;3.43;;;0.70;99.90;;;;;;2022083;29;20183;-70
2024/03/28 01:40:10;;;;;;;4.97;3.30;;;0.70;99.90;;;;;;2036823;29;20200;-71
2024/03/28 01:41:11;;;;;;;5.55;3.40;;;0.70;99.90;;;;;;2029929;29;20235;-71
2024/03/28 01:42:11;;;;;;;4.70;3.40;;;0.70;99.90;;;;;;2022567;29;20197;-70
2024/03/28 01:43:12;;;;;;;5.47;3.63;;;0.70;99.90;;;;;;2031835;29;20617;-70
2024/03/28 01:44:13;;;;;;;4.63;3.53;;;0.70;99.90;;;;;;2023606;29;20238;-71
2024/03/28 01:45:14;;;;;;;4.10;3.03;;;0.70;99.90;;;;;;2023026;29;20664;-70
2024/03/28 01:46:18;;;;;;;4.93;3.67;;;0.80;99.90;;;;;;2031829;29;20187;-71
2024/03/28 01:47:18;;;;;;;5.40;3.80;;;0.80;99.90;;;;;;2025948;29;20542;-70
2024/03/28 01:48:19;;;;;;;4.93;3.43;;;0.90;99.90;;;;;;2027127;29;20289;-71
2024/03/28 01:49:20;;;;;;;4.83;3.30;;;0.90;99.90;;;;;;2037308;29;20200;-71
2024/03/28 01:50:21;;;;;;;4.05;3.25;;;0.90;99.90;;;;;;2029757;29;20230;-71
2024/03/28 01:51:23;;;;;;;4.75;3.40;;;1.00;99.90;;;;;;2023512;29;20233;-71
2024/03/28 01:52:24;;;;;;;4.90;3.50;;;0.90;99.90;;;;;;2022678;29;20233;-70
2024/03/28 01:53:25;;;;;;;5.45;3.50;;;0.90;99.90;;;;;;2014005;29;20235;-70
2024/03/28 01:54:29;;;;;;;3.70;2.85;;;0.80;99.90;;;;;;2014773;29;20239;-71
2024/03/28 01:55:30;;;;;;;5.43;3.72;;;0.90;99.90;;;;;;2021975;29;20308;-70
2024/03/28 01:56:31;;;;;;;5.13;3.43;;;0.90;99.90;;;;;;2037632;29;20228;-71
2024/03/28 01:57:31;;;;;;;5.50;4.13;;;1.00;99.90;;;;;;2037546;29;20300;-71
2024/03/28 01:58:33;;;;;;;5.97;4.23;;;0.90;99.90;;;;;;2030738;29;20251;-71
2024/03/28 01:59:35;;;;;;;4.93;3.70;;;0.90;99.90;;;;;;2035942;29;20228;-71
2024/03/28 02:00:37;;;;;;;5.78;3.60;;;0.90;99.90;;;;;;2030889;29;20710;-70
2024/03/28 02:01:40;;;;;;;5.10;3.75;;;0.80;99.90;;;;;;2023257;29;20303;-71
2024/03/28 02:02:41;;;;;;;4.47;3.67;;;0.80;99.90;;;;;;2026130;29;20935;-71
2024/03/28 02:03:42;;;;;;;5.03;3.45;;;0.80;99.90;;;;;;2022334;29;20233;-71
2024/03/28 02:04:43;;;;;;;3.53;2.77;;;0.80;99.90;;;;;;2026220;29;20625;-71
2024/03/28 02:05:45;;;;;;;5.35;3.72;;;0.70;99.90;;;;;;2030152;29;20272;-71
2024/03/28 02:06:45;;;;;;;4.78;3.42;;;0.60;99.90;;;;;;2023680;29;20222;-71
2024/03/28 02:07:46;;;;;;;5.63;3.57;;;0.50;99.90;;;;;;2025590;29;20217;-71
2024/03/28 02:08:47;;;;;;;5.60;3.47;;;0.50;99.90;;;;;;2038213;29;20224;-71
2024/03/28 02:09:48;;;;;;;4.63;3.00;;;0.40;99.90;;;;;;2030167;29;20226;-71
2024/03/28 02:10:48;;;;;;;10.23;3.77;;;0.40;99.90;;;;;;2025170;29;20225;-71
2024/03/28 02:11:49;;;;;;;5.67;3.57;;;0.30;99.90;;;;;;2032731;29;20928;-71
2024/03/28 02:12:50;;;;;;;5.13;3.43;;;0.30;99.90;;;;;;2025890;29;20600;-71
2024/03/28 02:13:50;;;;;;;5.93;3.50;;;0.40;99.90;;;;;;2025448;29;20232;-71
2024/03/28 02:14:51;;;;;;;5.57;3.80;;;0.40;99.90;;;;;;2033884;29;20233;-71
2024/03/28 02:15:52;;;;;;;6.37;4.00;;;0.30;99.90;;;;;;2033064;29;20224;-71
2024/03/28 02:16:52;;;;;;;5.80;3.43;;;0.30;99.90;;;;;;2024646;29;20221;-71
2024/03/28 02:17:53;;;;;;;5.47;3.77;;;0.30;99.90;;;;;;2024559;29;20733;-70
2024/03/28 02:18:57;;;;;;;4.50;3.07;;;0.40;99.90;;;;;;2038456;29;20228;-71
2024/03/28 02:19:58;;;;;;;6.88;4.45;;;0.30;99.90;;;;;;2029275;29;20229;-71
2024/03/28 02:20:59;;;;;;;5.37;3.53;;;0.40;99.90;;;;;;2021342;29;20265;-71
2024/03/28 02:22:01;;;;;;;8.23;3.67;;;0.30;99.90;;;;;;2027760;29;20265;-71
2024/03/28 02:23:01;;;;;;;5.00;3.47;;;0.30;99.90;;;;;;2031753;29;20229;-71
2024/03/28 02:24:02;;;;;;;5.27;3.40;;;0.30;99.90;;;;;;2028293;29;20264;-71
2024/03/28 02:25:07;;;;;;;6.60;4.03;;;0.40;99.90;;;;;;2028988;29;20205;-71
2024/03/28 02:26:08;;;;;;;5.75;3.42;;;0.30;99.90;;;;;;2037377;29;20710;-71
2024/03/28 02:27:09;;;;;;;5.72;3.85;;;0.30;99.90;;;;;;2038052;29;20189;-71
2024/03/28 02:28:10;;;;;;;5.33;3.60;;;0.30;99.90;;;;;;2032178;29;20605;-71
2024/03/28 02:29:10;;;;;;;4.87;3.47;;;0.30;99.90;;;;;;2032641;29;20182;-71
2024/03/28 02:30:12;;;;;;;6.73;4.03;;;0.20;99.90;;;;;;2031313;29;20761;-70
2024/03/28 02:31:13;;;;;;;6.05;4.00;;;0.20;99.90;;;;;;2037275;29;20186;-70
2024/03/28 02:32:14;;;;;;;5.63;4.15;;;0.20;99.90;;;;;;2031379;29;20189;-70
2024/03/28 02:33:15;;;;;;;4.83;3.23;;;0.30;99.90;;;;;;2023325;29;20582;-71
2024/03/28 02:34:16;;;;;;;5.30;3.50;;;0.30;99.90;;;;;;2030159;29;20280;-71
2024/03/28 02:35:16;;;;;;;6.95;4.28;;;0.30;99.90;;;;;;2023556;29;20181;-71
2024/03/28 02:36:17;;;;;;;6.03;4.23;;;0.40;99.90;;;;;;2015638;29;20854;-71
2024/03/28 02:37:18;;;;;;;4.80;3.27;;;0.40;99.90;;;;;;2015359;29;20190;-70
2024/03/28 02:38:19;;;;;;;6.00;3.65;;;0.40;99.90;;;;;;2023571;29;20186;-70
2024/03/28 02:39:19;;;;;;;6.50;3.90;;;0.40;99.90;;;;;;2022534;29;20265;-71
2024/03/28 02:40:20;;;;;;;7.80;3.77;;;0.40;99.90;;;;;;2025653;29;20221;-68
2024/03/28 02:41:21;;;;;;;4.53;3.40;;;0.30;99.90;;;;;;2033032;29;20308;-69
2024/03/28 02:42:22;;;;;;;6.90;3.60;;;0.20;99.90;;;;;;2033544;29;20232;-69
2024/03/28 02:43:24;;;;;;;5.30;3.23;;;0.20;99.90;;;;;;2035146;29;20297;-69
2024/03/28 02:44:24;;;;;;;4.88;3.55;;;0.20;99.90;;;;;;2027195;29;20229;-69
2024/03/28 02:45:25;;;;;;;4.70;3.00;;;0.30;99.90;;;;;;2017886;29;20321;-69
2024/03/28 02:46:26;;;;;;;7.07;3.40;;;0.30;99.90;;;;;;2017883;29;20225;-69
2024/03/28 02:47:26;;;;;;;7.90;4.07;;;0.20;99.90;;;;;;2026946;29;20232;-69
2024/03/28 02:48:27;;;;;;;5.23;3.87;;;0.20;99.90;;;;;;2024906;29;20228;-68
2024/03/28 02:49:28;;;;;;;5.67;3.67;;;0.30;99.90;;;;;;2016887;29;20233;-69
2024/03/28 02:50:29;;;;;;;6.90;3.93;;;0.20;99.90;;;;;;2025353;29;20239;-69
2024/03/28 02:51:29;;;;;;;6.03;3.97;;;0.20;99.90;;;;;;2037824;29;20219;-69
2024/03/28 02:52:30;;;;;;;4.77;3.43;;;0.20;99.90;;;;;;2029870;29;20284;-71
2024/03/28 02:53:31;;;;;;;5.60;3.77;;;0.20;99.90;;;;;;2008647;29;20263;-70
2024/03/28 02:54:32;;;;;;;5.63;4.10;;;0.20;99.90;;;;;;2014632;29;20694;-71
2024/03/28 02:55:33;;;;;;;5.90;3.90;;;0.10;99.90;;;;;;2026944;29;20232;-70
2024/03/28 02:56:33;;;;;;;5.97;3.83;;;0.20;99.90;;;;;;2033191;29;20252;-71
2024/03/28 02:57:34;;;;;;;5.27;3.93;;;0.20;99.90;;;;;;2032459;29;20291;-70
2024/03/28 02:58:35;;;;;;;6.57;3.90;;;0.20;99.90;;;;;;2032441;29;20686;-70
2024/03/28 02:59:35;;;;;;;7.37;3.80;;;0.20;99.90;;;;;;2031491;29;20442;-71
2024/03/28 03:00:36;;;;;;;5.80;3.50;;;0.20;99.90;;;;;;2032324;29;20232;-70
2024/03/28 03:01:37;;;;;;;6.73;4.33;;;0.20;99.90;;;;;;2037778;29;20246;-70
2024/03/28 03:02:37;;;;;;;5.17;4.03;;;0.20;99.90;;;;;;2029596;29;20618;-68
2024/03/28 03:03:38;;;;;;;8.73;4.40;;;0.20;99.90;;;;;;2016665;29;20218;-69
2024/03/28 03:04:39;;;;;;;4.97;3.20;;;0.20;99.90;;;;;;2023391;29;20226;-68
2024/03/28 03:05:39;;;;;;;5.07;3.77;;;0.10;99.90;;;;;;2025196;29;20221;-69
2024/03/28 03:06:40;;;;;;;4.23;3.07;;;0.10;99.90;;;;;;2023494;29;20237;-68
2024/03/28 03:07:41;;;;;;;4.90;3.57;;;0.10;99.90;;;;;;2031492;29;20229;-71
2024/03/28 03:08:41;;;;;;;5.50;3.80;;;0.10;99.90;;;;;;2024909;29;20299;-71
2024/03/28 03:09:43;;;;;;;4.13;2.77;;;0.00;99.90;;;;;;2014823;29;20302;-69
2024/03/28 03:10:43;;;;;;;3.95;2.90;;;0.00;99.90;;;;;;2023519;29;20316;-69
2024/03/28 03:11:44;;;;;;;3.27;2.43;;;0.00;99.90;;;;;;2032054;29;20280;-68
2024/03/28 03:12:45;;;;;;;2.10;1.80;;;-0.10;99.90;;;;;;2038318;29;20220;-69
2024/03/28 03:13:45;;;;;;;2.50;1.87;;;0.00;99.90;;;;;;2037800;29;20220;-69
2024/03/28 03:14:49;;;;;;;2.70;1.67;;;-0.10;99.90;;;;;;2030497;29;20225;-69
2024/03/28 03:15:55;;;;;;;2.50;2.10;;;-0.10;99.90;;;;;;2028429;29;20249;-68
2024/03/28 03:17:02;;;;;;;2.67;2.03;;;-0.10;99.90;;;;;;2011905;29;20233;-69
2024/03/28 03:18:03;;;;;;;5.10;3.65;;;-0.10;99.90;;;;;;2014896;29;20729;-68
2024/03/28 03:19:04;;;;;;;4.22;3.20;;;-0.10;99.90;;;;;;2018747;29;20215;-69
2024/03/28 03:20:07;;;;;;;3.77;2.73;;;0.00;99.90;;;;;;2018761;29;20193;-69
2024/03/28 03:21:10;;;;;;;4.82;2.67;;;-0.10;99.90;;;;;;2027826;29;20643;-68
2024/03/28 03:22:11;;;;;;;4.05;2.65;;;0.00;99.90;;;;;;2037436;29;20192;-68
2024/03/28 03:23:11;;;;;;;3.83;2.70;;;0.00;99.90;;;;;;2020377;29;20210;-69
2024/03/28 03:24:13;;;;;;;5.37;3.17;;;0.10;99.90;;;;;;2020572;29;20221;-68
2024/03/28 03:25:24;;;;;;;4.38;3.10;;;0.10;99.90;;;;;;2023119;29;20678;-69
2024/03/28 03:26:30;;;;;;;2.90;1.80;;;0.00;99.90;;;;;;2022714;29;20593;-68
2024/03/28 03:27:32;;;;;;;2.08;1.42;;;0.00;99.90;;;;;;2038631;29;20727;-69
2024/03/28 03:35:12;;;;;;;2.55;1.27;;;0.20;99.90;;;;;;2018941;29;20225;-69
2024/03/28 03:36:13;;;;;;;1.63;1.30;;;0.20;99.90;;;;;;2020748;29;20190;-69
2024/03/28 03:37:21;;;;;;;1.33;1.10;;;0.20;99.90;;;;;;2029373;29;20726;-69
2024/03/28 03:38:22;;;;;;;1.65;1.05;;;0.20;99.90;;;;;;2020684;29;20237;-68
2024/03/28 03:39:23;;;;;;;1.20;1.10;;;0.30;99.90;;;;;;2020849;29;20236;-69
2024/03/28 03:40:24;;;;;;;1.23;1.13;;;0.30;99.90;;;;;;2036969;29;20720;-68
2024/03/28 03:41:25;;;;;;;2.50;1.27;;;0.30;99.90;;;;;;2029687;29;20233;-68
2024/03/28 03:42:26;;;;;;;1.30;1.13;;;0.30;99.90;;;;;;2021628;29;20777;-69
2024/03/28 03:43:27;;;;;;;1.77;1.15;;;0.30;99.90;;;;;;2029528;29;20311;-68
2024/03/28 03:44:27;;;;;;;1.35;1.00;;;0.40;99.90;;;;;;2030513;29;20594;-69
2024/03/28 03:45:28;;;;;;;2.20;1.23;;;0.30;99.90;;;;;;2022504;29;20234;-69
2024/03/28 03:46:29;;;;;;;2.33;1.30;;;0.40;99.90;;;;;;2022368;29;20237;-69
2024/03/28 03:47:30;;;;;;;3.05;1.20;;;0.30;99.90;;;;;;2031640;29;20228;-69
2024/03/28 03:48:30;;;;;;;1.53;1.20;;;0.20;99.90;;;;;;2021086;29;20294;-69
2024/03/28 03:49:31;;;;;;;2.77;1.90;;;0.20;99.90;;;;;;2013312;29;20245;-69
2024/03/28 03:50:32;;;;;;;1.30;1.03;;;0.20;99.90;;;;;;2021199;29;20245;-69
2024/03/28 03:51:33;;;;;;;1.20;0.90;;;0.30;99.90;;;;;;2029534;29;20222;-69
2024/03/28 03:52:34;;;;;;;1.13;0.80;;;0.40;99.90;;;;;;2030481;29;20248;-68
2024/03/28 03:53:34;;;;;;;0.97;0.90;;;0.60;99.90;;;;;;2029236;29;20685;-69
2024/03/28 03:54:35;;;;;;;0.80;0.80;;;0.80;99.90;;;;;;2021292;29;20601;-69
2024/03/28 03:55:36;;;;;;;0.77;0.73;;;0.90;99.90;;;;;;2021716;29;20276;-69
2024/03/28 03:56:37;;;;;;;0.93;0.90;;;1.00;99.90;;;;;;2030495;29;20300;-69
2024/03/28 03:57:37;;;;;;;1.10;0.90;;;1.10;99.90;;;;;;2023424;29;20225;-69
2024/03/28 03:58:38;;;;;;;0.93;0.80;;;1.20;99.90;;;;;;2012763;29;20231;-69
2024/03/28 03:59:39;;;;;;;0.70;0.70;;;1.30;99.90;;;;;;2022624;29;20229;-69
2024/03/28 04:00:39;;;;;;;0.87;0.83;;;1.20;99.90;;;;;;2030909;29;20639;-68
2024/03/28 04:01:40;;;;;;;1.13;1.00;;;1.20;99.90;;;;;;2037873;29;20228;-69
2024/03/28 04:02:41;;;;;;;1.57;0.97;;;1.30;99.90;;;;;;2033510;29;20771;-69
2024/03/28 04:03:41;;;;;;;0.73;0.73;;;1.30;99.90;;;;;;2026087;29;20246;-69
2024/03/28 04:04:42;;;;;;;0.90;0.80;;;1.30;99.90;;;;;;2033216;29;20233;-69
2024/03/28 04:05:43;;;;;;;0.80;0.80;;;1.40;99.90;;;;;;2030057;29;20646;-69
2024/03/28 04:06:44;;;;;;;0.80;0.80;;;1.40;99.90;;;;;;2021416;29;20219;-70
2024/03/28 04:07:45;;;;;;;0.90;0.90;;;1.40;99.90;;;;;;2021529;29;20260;-70
2024/03/28 04:08:46;;;;;;;0.98;0.73;;;1.50;99.90;;;;;;2013595;29;20219;-70
2024/03/28 04:09:47;;;;;;;0.50;0.50;;;1.50;99.90;;;;;;2021511;29;20235;-71
2024/03/28 04:10:47;;;;;;;0.70;0.70;;;1.50;99.90;;;;;;2029199;29;20223;-70
2024/03/28 04:11:48;;;;;;;0.60;0.60;;;1.60;99.90;;;;;;2029636;29;20226;-70
2024/03/28 04:12:49;;;;;;;1.10;0.90;;;1.60;99.90;;;;;;2029918;29;20221;-70
2024/03/28 04:13:49;;;;;;;0.70;0.70;;;1.70;99.90;;;;;;2021358;29;20226;-71
2024/03/28 04:14:50;;;;;;;0.77;0.77;;;1.70;99.90;;;;;;2015885;29;20736;-70
2024/03/28 04:15:51;;;;;;;0.80;0.80;;;1.70;99.90;;;;;;2021709;29;20722;-70
2024/03/28 04:16:51;;;;;;;1.27;0.80;;;1.70;99.90;;;;;;2022830;29;20252;-70
2024/03/28 04:17:52;;;;;;;0.90;0.80;;;1.70;99.90;;;;;;2014377;29;20221;-70
2024/03/28 04:18:53;;;;;;;1.00;0.90;;;1.80;99.90;;;;;;2015292;29;20231;-70
2024/03/28 04:19:54;;;;;;;1.43;1.33;;;1.70;99.90;;;;;;2021224;29;20309;-70
2024/03/28 04:20:54;;;;;;;2.47;1.20;;;1.70;99.90;;;;;;2028670;29;20226;-70
2024/03/28 04:21:56;;;;;;;1.60;1.30;;;1.70;99.90;;;;;;2036127;29;20255;-70
2024/03/28 04:22:57;;;;;;;1.25;1.13;;;1.60;99.90;;;;;;2029485;29;20366;-71
2024/03/28 04:23:58;;;;;;;1.40;1.30;;;1.60;99.90;;;;;;2018109;29;20277;-70
2024/03/28 04:24:59;;;;;;;1.80;1.23;;;1.60;99.90;;;;;;2025654;29;20412;-71
2024/03/28 04:26:00;;;;;;;1.60;1.30;;;1.50;99.90;;;;;;2021731;29;20254;-70
2024/03/28 04:27:00;;;;;;;1.58;1.45;;;1.50;99.90;;;;;;2022646;29;20338;-71
2024/03/28 04:28:01;;;;;;;1.63;1.30;;;1.50;99.90;;;;;;2021511;29;20263;-70
2024/03/28 04:29:02;;;;;;;1.20;1.10;;;1.50;99.90;;;;;;2029532;29;20230;-69
2024/03/28 04:30:03;;;;;;;1.10;0.90;;;1.60;99.90;;;;;;2029305;29;20221;-69
2024/03/28 04:31:03;;;;;;;1.48;1.30;;;1.60;99.90;;;;;;2018165;29;20763;-69
2024/03/28 04:32:04;;;;;;;1.40;1.20;;;1.60;99.90;;;;;;2025505;29;20188;-70
2024/03/28 04:33:05;;;;;;;1.48;1.30;;;1.70;99.90;;;;;;2030239;29;20296;-69
2024/03/28 04:34:07;;;;;;;2.30;1.40;;;1.70;99.90;;;;;;2022993;29;20179;-69
2024/03/28 04:35:09;;;;;;;1.80;1.50;;;1.70;99.90;;;;;;2020669;29;20242;-70
2024/03/28 04:36:10;;;;;;;2.42;1.73;;;1.70;99.90;;;;;;2030374;29;20187;-70
2024/03/28 04:37:10;;;;;;;1.33;1.23;;;1.70;99.90;;;;;;2022864;29;20191;-70
2024/03/28 04:38:11;;;;;;;2.80;2.00;;;1.70;99.90;;;;;;2021328;29;20191;-69
2024/03/28 04:39:15;;;;;;;1.90;1.70;;;1.70;99.90;;;;;;2025000;29;20655;-70
2024/03/28 04:40:15;;;;;;;1.65;1.13;;;1.70;99.90;;;;;;2029427;29;20192;-70
2024/03/28 04:41:16;;;;;;;1.60;1.27;;;1.60;99.90;;;;;;2021671;29;20212;-70
2024/03/28 04:42:17;;;;;;;1.53;1.23;;;1.60;99.90;;;;;;2022456;29;20422;-70
2024/03/28 04:43:17;;;;;;;1.13;0.87;;;1.60;99.90;;;;;;2021289;29;20286;-70
2024/03/28 04:44:18;;;;;;;1.97;1.40;;;1.70;99.90;;;;;;2022738;29;20712;-70
2024/03/28 04:45:20;;;;;;;1.20;1.10;;;1.60;99.90;;;;;;2022975;29;21937;-70
2024/03/28 04:46:20;;;;;;;1.10;1.00;;;1.60;99.90;;;;;;2023017;29;20222;-70
2024/03/28 04:47:21;;;;;;;0.90;0.80;;;1.60;99.90;;;;;;2020997;29;20246;-70
2024/03/28 04:48:22;;;;;;;0.80;0.80;;;1.70;99.90;;;;;;2021146;29;20626;-70
2024/03/28 04:49:23;;;;;;;1.00;0.90;;;1.80;99.90;;;;;;2020712;29;20249;-70
2024/03/28 04:50:23;;;;;;;2.77;1.37;;;1.80;99.90;;;;;;2022789;29;20261;-70
2024/03/28 04:51:24;;;;;;;0.73;0.70;;;1.90;99.90;;;;;;2013473;29;20247;-70
2024/03/28 04:52:27;;;;;;;0.70;0.70;;;1.90;99.90;;;;;;2030045;29;20267;-71
2024/03/28 04:53:28;;;;;;;0.60;0.60;;;2.00;99.90;;;;;;2035840;29;20764;-68
2024/03/28 04:54:29;;;;;;;0.57;0.57;;;2.10;99.90;;;;;;2030236;29;20233;-69
2024/03/28 04:55:30;;;;;;;0.90;0.70;;;2.20;99.90;;;;;;2021914;29;20223;-68
2024/03/28 04:56:30;;;;;;;0.50;0.50;;;2.20;99.90;;;;;;2031130;29;20313;-69
2024/03/28 04:57:32;;;;;;;0.60;0.60;;;2.30;99.90;;;;;;2029938;29;20721;-69
2024/03/28 04:58:32;;;;;;;1.05;0.50;;;2.40;99.90;;;;;;2013116;29;20339;-69
2024/03/28 04:59:33;;;;;;;0.40;0.40;;;2.50;99.90;;;;;;2022341;29;20250;-69
2024/03/28 05:00:36;;;;;;;0.70;0.70;;;2.60;99.90;;;;;;2036992;29;20896;-69
2024/03/28 05:01:36;;;;;;;0.60;0.60;;;2.60;99.90;;;;;;2021145;29;20326;-69
2024/03/28 05:02:37;;;;;;;0.40;0.40;;;2.80;99.90;;;;;;2005871;29;20282;-69
2024/03/28 05:03:38;;;;;;;0.60;0.60;;;2.80;99.90;;;;;;2012995;29;20226;-68
2024/03/28 05:04:38;;;;;;;0.50;0.50;;;2.90;99.90;;;;;;2021577;29;20616;-69
2024/03/28 05:05:39;;;;;;;0.50;0.50;;;3.00;99.70;;;;;;2036543;29;20228;-69
2024/03/28 05:06:40;;;;;;;0.53;0.50;;;3.00;99.70;;;;;;2037195;29;20286;-69
2024/03/28 05:07:40;;;;;;;0.50;0.50;;;3.10;99.30;;;;;;2028934;29;20323;-69
2024/03/28 05:08:41;;;;;;;0.47;0.47;;;3.20;99.20;;;;;;2029276;29;20235;-69
2024/03/28 05:09:46;;;;;;;0.50;0.50;;;3.20;99.10;;;;;;2029662;29;20279;-69
2024/03/28 05:10:47;;;;;;;0.63;0.50;;;3.30;98.90;;;;;;2021605;29;20228;-69
2024/03/28 05:11:48;;;;;;;0.43;0.43;;;3.30;98.50;;;;;;2015027;29;20722;-69
2024/03/28 05:12:49;;;;;;;0.35;0.35;;;3.30;98.60;;;;;;2021642;29;20785;-68
2024/03/28 05:13:50;;;;;;;0.97;0.87;;;3.40;98.40;;;;;;2028783;29;20318;-69
2024/03/28 05:14:52;;;;;;;0.40;0.40;;;3.40;98.10;;;;;;2034843;29;20224;-69
2024/03/28 05:15:53;;;;;;;0.40;0.40;;;3.50;97.50;;;;;;2032926;29;20584;-69
2024/03/28 05:16:54;;;;;;;0.40;0.40;;;3.60;97.50;;;;;;2021196;29;20356;-69
2024/03/28 05:17:54;;;;;;;0.50;0.50;;;3.60;97.30;;;;;;2018986;29;20768;-69
2024/03/28 05:18:55;;;;;;;0.30;0.30;;;3.70;96.90;;;;;;2025883;29;20321;-69
2024/03/28 05:19:55;;;;;;;1.57;0.50;;;3.70;97.00;;;;;;2028579;29;20224;-69
2024/03/28 05:20:56;;;;;;;0.57;0.40;;;3.80;96.60;;;;;;2028134;29;20231;-69
2024/03/28 05:21:57;;;;;;;0.40;0.40;;;3.80;96.20;;;;;;2025083;29;20605;-69
2024/03/28 05:22:57;;;;;;;0.50;0.50;;;3.80;96.30;;;;;;2030125;29;20224;-69
2024/03/28 05:23:58;;;;;;;0.40;0.40;;;3.90;96.60;;;;;;2029857;29;20229;-69
2024/03/28 05:24:59;;;;;;;0.40;0.40;;;3.90;95.80;;;;;;2029828;29;20587;-69
2024/03/28 05:25:59;;;;;;;0.40;0.40;;;4.00;95.90;;;;;;2037677;29;20227;-69
2024/03/28 05:27:01;;;;;;;0.60;0.50;;;4.00;95.40;;;;;;2032932;29;20250;-69
2024/03/28 05:28:03;;;;;;;0.47;0.40;;;4.00;95.20;;;;;;2022383;29;20276;-69
2024/03/28 05:29:04;;;;;;;1.50;0.30;;;4.10;95.70;;;;;;2022317;29;20677;-69